createdAt,value
2023-02-02T00:00:00.118Z,83.44
2023-02-02T00:01:00.124Z,82.88
2023-02-02T00:02:00.112Z,82.57
2023-02-02T00:03:00.075Z,83.40
2023-02-02T00:04:00.185Z,83.19
2023-02-02T00:05:00.040Z,82.88
2023-02-02T00:06:00.047Z,81.84
2023-02-02T00:07:00.045Z,82.26
2023-02-02T00:08:00.040Z,83.19
2023-02-02T00:08:59.990Z,83.09
2023-02-02T00:10:00.001Z,83.54
2023-02-02T00:10:59.991Z,83.64
2023-02-02T00:11:59.981Z,83.40
2023-02-02T00:12:59.997Z,83.33
2023-02-02T00:13:59.981Z,83.54
2023-02-02T00:14:59.939Z,83.71
2023-02-02T00:15:59.990Z,83.81
2023-02-02T00:16:59.942Z,83.50
2023-02-02T00:17:59.940Z,83.64
2023-02-02T00:18:59.905Z,83.75
2023-02-02T00:19:59.893Z,84.12
2023-02-02T00:20:59.892Z,83.75
2023-02-02T00:21:59.905Z,83.54
2023-02-02T00:22:59.861Z,83.95
2023-02-02T00:23:59.899Z,85.30
2023-02-02T00:24:59.850Z,84.37
2023-02-02T00:25:59.844Z,84.88
2023-02-02T00:26:59.831Z,84.88
2023-02-02T00:27:59.808Z,84.99
2023-02-02T00:28:59.847Z,85.09
2023-02-02T00:29:59.824Z,85.09
2023-02-02T00:30:59.846Z,85.92
2023-02-02T00:31:59.818Z,85.09
2023-02-02T00:32:59.783Z,85.24
2023-02-02T00:33:59.781Z,84.99
2023-02-02T00:34:59.771Z,84.92
2023-02-02T00:35:59.748Z,84.20
2023-02-02T00:36:59.765Z,84.09
2023-02-02T00:37:59.727Z,84.99
2023-02-02T00:38:59.718Z,84.47
2023-02-02T00:39:59.711Z,84.92
2023-02-02T00:40:59.694Z,85.40
2023-02-02T00:41:59.711Z,84.58
2023-02-02T00:42:59.676Z,84.58
2023-02-02T00:43:59.663Z,84.47
2023-02-02T00:44:59.700Z,84.78
2023-02-02T00:45:59.670Z,84.78
2023-02-02T00:46:59.665Z,84.30
2023-02-02T00:47:59.671Z,83.75
2023-02-02T00:48:59.617Z,83.37
2023-02-02T00:49:59.622Z,83.78
2023-02-02T00:50:59.599Z,83.54
2023-02-02T00:51:59.627Z,83.58
2023-02-02T00:52:59.630Z,83.75
2023-02-02T00:53:59.574Z,83.78
2023-02-02T00:54:59.588Z,83.64
2023-02-02T00:55:59.597Z,84.06
2023-02-02T00:56:59.568Z,83.37
2023-02-02T00:57:59.531Z,83.68
2023-02-02T00:58:59.524Z,83.58
2023-02-02T00:59:59.507Z,84.03
2023-02-02T01:00:59.535Z,83.37
2023-02-02T01:01:59.530Z,84.30
2023-02-02T01:02:59.489Z,83.16
2023-02-02T01:03:59.511Z,83.68
2023-02-02T01:04:59.475Z,83.06
2023-02-02T01:05:59.462Z,83.47
2023-02-02T01:06:59.472Z,83.47
2023-02-02T01:07:59.453Z,83.26
2023-02-02T01:08:59.430Z,83.58
2023-02-02T01:09:59.443Z,83.26
2023-02-02T01:10:59.427Z,83.78
2023-02-02T01:11:59.417Z,83.26
2023-02-02T01:13:31.274Z,84.09
2023-02-02T01:13:59.353Z,83.58
2023-02-02T01:14:59.341Z,83.16
2023-02-02T01:15:59.334Z,82.86
2023-02-02T01:16:59.331Z,82.79
2023-02-02T01:17:59.329Z,82.89
2023-02-02T01:18:59.323Z,82.89
2023-02-02T01:19:59.304Z,83.10
2023-02-02T01:20:59.285Z,82.48
2023-02-02T01:21:59.284Z,82.17
2023-02-02T01:22:59.298Z,82.44
2023-02-02T01:23:59.278Z,82.34
2023-02-02T01:24:59.243Z,82.34
2023-02-02T01:25:59.231Z,82.13
2023-02-02T01:26:59.225Z,82.13
2023-02-02T01:27:59.214Z,82.34
2023-02-02T01:28:59.220Z,82.13
2023-02-02T01:29:59.197Z,81.92
2023-02-02T01:30:59.308Z,81.82
2023-02-02T01:31:59.191Z,81.51
2023-02-02T01:32:59.174Z,81.09
2023-02-02T01:33:59.171Z,81.13
2023-02-02T01:34:59.152Z,81.65
2023-02-02T01:35:59.158Z,81.85
2023-02-02T01:36:59.158Z,80.99
2023-02-02T01:37:59.117Z,80.82
2023-02-02T01:38:59.111Z,80.82
2023-02-02T01:39:59.135Z,81.34
2023-02-02T01:40:59.096Z,80.99
2023-02-02T01:41:59.082Z,80.68
2023-02-02T01:42:59.070Z,80.68
2023-02-02T01:43:59.083Z,80.78
2023-02-02T01:44:59.054Z,80.61
2023-02-02T01:46:00.059Z,80.68
2023-02-02T01:46:59.056Z,80.78
2023-02-02T01:47:59.033Z,79.74
2023-02-02T01:48:59.032Z,79.85
2023-02-02T01:49:59.029Z,79.74
2023-02-02T01:50:59.002Z,80.33
2023-02-02T01:51:58.996Z,80.43
2023-02-02T01:52:58.971Z,79.09
2023-02-02T01:53:58.973Z,79.81
2023-02-02T01:54:59.009Z,79.60
2023-02-02T01:55:58.923Z,79.60
2023-02-02T01:56:58.957Z,80.12
2023-02-02T01:57:58.933Z,79.81
2023-02-02T01:58:58.921Z,79.81
2023-02-02T01:59:58.903Z,80.12
2023-02-02T02:00:58.947Z,80.85
2023-02-02T02:01:58.918Z,81.16
2023-02-02T02:02:58.873Z,80.43
2023-02-02T02:03:59.875Z,81.16
2023-02-02T02:04:58.883Z,80.68
2023-02-02T02:05:58.922Z,80.88
2023-02-02T02:06:58.845Z,81.09
2023-02-02T02:07:58.830Z,81.30
2023-02-02T02:08:58.845Z,81.82
2023-02-02T02:09:58.813Z,80.78
2023-02-02T02:10:58.805Z,81.30
2023-02-02T02:11:58.793Z,81.30
2023-02-02T02:12:58.783Z,81.61
2023-02-02T02:13:58.803Z,82.03
2023-02-02T02:14:58.778Z,81.92
2023-02-02T02:15:58.754Z,81.09
2023-02-02T02:16:58.777Z,81.61
2023-02-02T02:17:58.738Z,80.99
2023-02-02T02:18:58.721Z,80.99
2023-02-02T02:19:58.712Z,81.05
2023-02-02T02:20:58.714Z,81.30
2023-02-02T02:21:58.722Z,81.51
2023-02-02T02:22:58.692Z,82.03
2023-02-02T02:23:58.680Z,81.92
2023-02-02T02:24:58.673Z,82.23
2023-02-02T02:25:58.667Z,82.37
2023-02-02T02:26:58.668Z,83.16
2023-02-02T02:28:00.775Z,83.20
2023-02-02T02:28:58.654Z,83.10
2023-02-02T02:29:58.631Z,83.41
2023-02-02T02:30:58.716Z,83.20
2023-02-02T02:31:58.608Z,84.03
2023-02-02T02:32:58.604Z,83.93
2023-02-02T02:33:58.578Z,83.93
2023-02-02T02:34:58.586Z,84.07
2023-02-02T02:35:58.562Z,84.03
2023-02-02T02:36:58.552Z,83.93
2023-02-02T02:37:58.558Z,84.75
2023-02-02T02:38:58.535Z,84.34
2023-02-02T02:39:58.543Z,84.75
2023-02-02T02:40:58.515Z,84.13
2023-02-02T02:41:58.517Z,84.03
2023-02-02T02:42:58.519Z,84.03
2023-02-02T02:43:58.496Z,83.78
2023-02-02T02:44:58.482Z,83.89
2023-02-02T02:45:58.517Z,84.09
2023-02-02T02:46:58.459Z,83.99
2023-02-02T02:47:58.499Z,84.09
2023-02-02T02:48:58.433Z,83.58
2023-02-02T02:49:58.434Z,83.99
2023-02-02T02:50:58.422Z,84.09
2023-02-02T02:51:58.407Z,84.41
2023-02-02T02:52:58.424Z,84.09
2023-02-02T02:53:58.395Z,84.20
2023-02-02T02:54:58.382Z,84.51
2023-02-02T02:55:58.362Z,84.51
2023-02-02T02:56:58.367Z,84.30
2023-02-02T02:57:58.339Z,84.09
2023-02-02T02:58:58.363Z,84.51
2023-02-02T02:59:58.336Z,85.03
2023-02-02T03:00:58.349Z,85.34
2023-02-02T03:01:58.322Z,84.92
2023-02-02T03:02:58.403Z,84.82
2023-02-02T03:03:58.296Z,85.13
2023-02-02T03:04:58.288Z,85.24
2023-02-02T03:05:58.285Z,85.03
2023-02-02T03:06:58.259Z,84.96
2023-02-02T03:07:58.312Z,85.03
2023-02-02T03:08:58.240Z,85.24
2023-02-02T03:09:58.233Z,85.13
2023-02-02T03:10:58.233Z,85.24
2023-02-02T03:11:58.241Z,84.72
2023-02-02T03:12:58.226Z,84.92
2023-02-02T03:13:58.196Z,85.09
2023-02-02T03:14:58.192Z,85.03
2023-02-02T03:15:58.230Z,84.61
2023-02-02T03:16:58.179Z,85.13
2023-02-02T03:17:58.167Z,85.48
2023-02-02T03:18:58.156Z,84.92
2023-02-02T03:19:58.148Z,85.03
2023-02-02T03:20:58.229Z,85.13
2023-02-02T03:21:58.128Z,85.24
2023-02-02T03:22:58.134Z,85.03
2023-02-02T03:23:58.112Z,85.34
2023-02-02T03:24:58.103Z,85.03
2023-02-02T03:25:58.089Z,84.86
2023-02-02T03:26:58.086Z,85.13
2023-02-02T03:27:58.079Z,85.44
2023-02-02T03:28:58.052Z,85.24
2023-02-02T03:29:58.044Z,84.92
2023-02-02T03:30:58.104Z,85.24
2023-02-02T03:31:58.024Z,85.34
2023-02-02T03:32:58.036Z,85.13
2023-02-02T03:33:58.017Z,85.13
2023-02-02T03:34:58.130Z,85.24
2023-02-02T03:35:58.007Z,84.82
2023-02-02T03:36:57.977Z,85.24
2023-02-02T03:37:57.983Z,84.92
2023-02-02T03:38:57.979Z,84.78
2023-02-02T03:39:57.978Z,85.03
2023-02-02T03:40:57.952Z,85.44
2023-02-02T03:41:57.941Z,85.96
2023-02-02T03:42:57.933Z,86.27
2023-02-02T03:43:57.915Z,85.96
2023-02-02T03:44:57.919Z,86.83
2023-02-02T03:45:57.919Z,86.99
2023-02-02T03:46:57.886Z,86.93
2023-02-02T03:47:57.888Z,86.62
2023-02-02T03:48:57.863Z,86.89
2023-02-02T03:49:57.854Z,87.55
2023-02-02T03:50:57.853Z,86.99
2023-02-02T03:51:57.847Z,86.89
2023-02-02T03:52:57.821Z,86.93
2023-02-02T03:53:57.820Z,86.99
2023-02-02T03:54:57.816Z,87.35
2023-02-02T03:55:57.820Z,88.13
2023-02-02T03:56:57.796Z,87.87
2023-02-02T03:57:57.793Z,87.30
2023-02-02T03:58:57.782Z,87.51
2023-02-02T03:59:57.765Z,86.99
2023-02-02T04:00:57.776Z,87.06
2023-02-02T04:01:57.791Z,86.58
2023-02-02T04:02:57.774Z,86.99
2023-02-02T04:03:57.751Z,86.75
2023-02-02T04:04:57.723Z,86.65
2023-02-02T04:05:57.711Z,86.54
2023-02-02T04:06:57.693Z,86.65
2023-02-02T04:07:57.693Z,86.75
2023-02-02T04:08:57.692Z,86.85
2023-02-02T04:09:57.679Z,87.99
2023-02-02T04:10:57.676Z,87.47
2023-02-02T04:11:57.651Z,87.99
2023-02-02T04:12:57.658Z,87.78
2023-02-02T04:13:57.626Z,87.68
2023-02-02T04:14:57.621Z,87.57
2023-02-02T04:15:57.609Z,87.99
2023-02-02T04:16:57.605Z,87.99
2023-02-02T04:17:57.612Z,87.78
2023-02-02T04:18:57.573Z,87.54
2023-02-02T04:19:57.571Z,87.88
2023-02-02T04:20:57.560Z,88.06
2023-02-02T04:21:57.547Z,87.78
2023-02-02T04:22:57.541Z,87.88
2023-02-02T04:23:57.553Z,87.99
2023-02-02T04:24:57.523Z,88.20
2023-02-02T04:25:57.520Z,88.82
2023-02-02T04:26:57.503Z,88.71
2023-02-02T04:27:57.488Z,88.51
2023-02-02T04:28:57.503Z,88.40
2023-02-02T04:29:57.476Z,88.61
2023-02-02T04:30:57.484Z,88.71
2023-02-02T04:31:57.550Z,88.82
2023-02-02T04:32:57.451Z,88.71
2023-02-02T04:33:57.454Z,88.40
2023-02-02T04:34:57.429Z,88.51
2023-02-02T04:35:57.426Z,88.86
2023-02-02T04:36:57.387Z,88.86
2023-02-02T04:37:57.398Z,88.61
2023-02-02T04:38:57.394Z,88.86
2023-02-02T04:39:57.378Z,89.17
2023-02-02T04:40:57.361Z,88.71
2023-02-02T04:41:57.358Z,89.13
2023-02-02T04:42:57.356Z,88.65
2023-02-02T04:43:57.354Z,89.17
2023-02-02T04:44:57.352Z,88.82
2023-02-02T04:45:57.403Z,88.82
2023-02-02T04:46:57.324Z,89.07
2023-02-02T04:47:57.305Z,89.03
2023-02-02T04:48:57.298Z,88.76
2023-02-02T04:49:57.307Z,88.51
2023-02-02T04:50:57.273Z,88.92
2023-02-02T04:51:57.305Z,88.51
2023-02-02T04:52:57.263Z,88.82
2023-02-02T04:53:57.248Z,88.20
2023-02-02T04:54:57.304Z,88.09
2023-02-02T04:55:57.229Z,88.26
2023-02-02T04:56:57.219Z,88.30
2023-02-02T04:57:57.219Z,87.95
2023-02-02T04:58:57.199Z,87.64
2023-02-02T04:59:57.209Z,87.85
2023-02-02T05:00:57.253Z,87.64
2023-02-02T05:01:57.170Z,87.95
2023-02-02T05:02:57.154Z,87.85
2023-02-02T05:03:57.167Z,87.99
2023-02-02T05:04:57.137Z,88.40
2023-02-02T05:05:57.150Z,88.30
2023-02-02T05:06:57.127Z,88.40
2023-02-02T05:07:57.112Z,88.51
2023-02-02T05:08:57.110Z,88.46
2023-02-02T05:09:57.094Z,88.36
2023-02-02T05:10:57.071Z,88.36
2023-02-02T05:11:57.079Z,88.36
2023-02-02T05:12:57.073Z,88.67
2023-02-02T05:13:57.073Z,87.95
2023-02-02T05:14:57.037Z,88.16
2023-02-02T05:15:57.043Z,88.26
2023-02-02T05:16:57.047Z,87.95
2023-02-02T05:17:57.020Z,87.85
2023-02-02T05:18:57.034Z,87.95
2023-02-02T05:19:57.007Z,87.95
2023-02-02T05:20:56.988Z,87.74
2023-02-02T05:21:56.987Z,88.06
2023-02-02T05:22:56.972Z,88.36
2023-02-02T05:23:56.963Z,88.26
2023-02-02T05:24:56.963Z,88.16
2023-02-02T05:25:56.937Z,88.16
2023-02-02T05:26:56.948Z,88.06
2023-02-02T05:27:56.940Z,88.06
2023-02-02T05:28:57.916Z,88.06
2023-02-02T05:29:56.905Z,88.16
2023-02-02T05:30:56.928Z,88.16
2023-02-02T05:31:56.917Z,88.36
2023-02-02T05:32:56.898Z,88.88
2023-02-02T05:33:56.868Z,88.98
2023-02-02T05:34:56.865Z,89.29
2023-02-02T05:35:56.848Z,89.40
2023-02-02T05:36:56.841Z,88.88
2023-02-02T05:37:59.063Z,88.98
2023-02-02T05:38:57.816Z,89.50
2023-02-02T05:39:56.819Z,89.61
2023-02-02T05:40:56.815Z,89.61
2023-02-02T05:41:56.806Z,89.40
2023-02-02T05:42:56.805Z,89.50
2023-02-02T05:43:56.764Z,89.29
2023-02-02T05:44:56.750Z,89.29
2023-02-02T05:45:57.784Z,89.54
2023-02-02T05:46:56.766Z,89.81
2023-02-02T05:47:56.761Z,90.53
2023-02-02T05:48:56.720Z,90.12
2023-02-02T05:49:56.705Z,89.71
2023-02-02T05:50:56.707Z,89.71
2023-02-02T05:51:56.685Z,90.12
2023-02-02T05:52:56.706Z,90.12
2023-02-02T05:53:56.677Z,90.02
2023-02-02T05:54:56.670Z,89.61
2023-02-02T05:55:56.656Z,89.81
2023-02-02T05:56:56.639Z,89.81
2023-02-02T05:57:56.657Z,90.02
2023-02-02T05:58:56.633Z,89.71
2023-02-02T05:59:56.612Z,89.40
2023-02-02T06:00:56.965Z,89.19
2023-02-02T06:01:56.619Z,89.56
2023-02-02T06:02:56.615Z,89.56
2023-02-02T06:03:56.593Z,89.56
2023-02-02T06:04:56.579Z,89.46
2023-02-02T06:05:56.572Z,89.01
2023-02-02T06:06:56.607Z,89.04
2023-02-02T06:07:56.540Z,88.49
2023-02-02T06:08:56.535Z,88.80
2023-02-02T06:09:56.521Z,88.80
2023-02-02T06:10:56.527Z,88.80
2023-02-02T06:11:56.513Z,87.97
2023-02-02T06:12:56.491Z,88.39
2023-02-02T06:13:56.523Z,88.18
2023-02-02T06:14:56.468Z,88.28
2023-02-02T06:15:56.528Z,88.22
2023-02-02T06:16:56.452Z,88.53
2023-02-02T06:17:56.482Z,88.39
2023-02-02T06:18:56.466Z,88.64
2023-02-02T06:19:56.417Z,88.49
2023-02-02T06:20:56.440Z,88.70
2023-02-02T06:21:56.425Z,89.22
2023-02-02T06:22:56.418Z,89.42
2023-02-02T06:23:56.402Z,89.01
2023-02-02T06:24:56.388Z,89.01
2023-02-02T06:25:56.373Z,88.59
2023-02-02T06:26:56.411Z,88.80
2023-02-02T06:27:56.372Z,89.15
2023-02-02T06:28:56.345Z,89.46
2023-02-02T06:29:56.335Z,89.15
2023-02-02T06:30:56.438Z,89.67
2023-02-02T06:31:56.383Z,89.56
2023-02-02T06:32:56.325Z,90.08
2023-02-02T06:33:56.304Z,89.92
2023-02-02T06:34:56.281Z,89.98
2023-02-02T06:35:56.274Z,90.08
2023-02-02T06:36:56.252Z,90.33
2023-02-02T06:37:56.264Z,90.12
2023-02-02T06:38:56.254Z,89.92
2023-02-02T06:39:56.239Z,89.92
2023-02-02T06:40:56.222Z,90.95
2023-02-02T06:41:56.211Z,90.64
2023-02-02T06:42:56.192Z,90.95
2023-02-02T06:43:56.205Z,91.05
2023-02-02T06:44:56.191Z,90.89
2023-02-02T06:45:56.188Z,91.05
2023-02-02T06:46:56.168Z,91.61
2023-02-02T06:47:56.165Z,91.57
2023-02-02T06:48:56.170Z,91.36
2023-02-02T06:49:56.126Z,91.20
2023-02-02T06:50:56.126Z,91.51
2023-02-02T06:51:56.104Z,91.61
2023-02-02T06:52:56.121Z,91.72
2023-02-02T06:53:58.358Z,91.82
2023-02-02T06:54:56.079Z,91.82
2023-02-02T06:55:56.091Z,92.03
2023-02-02T06:56:56.097Z,92.24
2023-02-02T06:57:56.058Z,92.13
2023-02-02T06:58:56.047Z,92.18
2023-02-02T06:59:56.023Z,91.76
2023-02-02T07:00:56.014Z,91.97
2023-02-02T07:01:56.064Z,92.53
2023-02-02T07:02:56.132Z,92.74
2023-02-02T07:03:55.996Z,92.53
2023-02-02T07:04:55.974Z,92.11
2023-02-02T07:05:55.971Z,92.43
2023-02-02T07:06:55.967Z,92.32
2023-02-02T07:07:55.990Z,92.43
2023-02-02T07:08:59.600Z,92.22
2023-02-02T07:09:58.352Z,92.11
2023-02-02T07:11:11.960Z,91.91
2023-02-02T07:11:59.026Z,91.60
2023-02-02T07:12:55.927Z,91.60
2023-02-02T07:14:27.799Z,91.70
2023-02-02T07:14:55.888Z,91.08
2023-02-02T07:15:55.920Z,91.70
2023-02-02T07:16:55.867Z,91.43
2023-02-02T07:17:55.853Z,91.49
2023-02-02T07:18:55.869Z,91.60
2023-02-02T07:19:55.882Z,91.80
2023-02-02T07:20:55.842Z,91.95
2023-02-02T07:21:55.820Z,91.74
2023-02-02T07:22:55.807Z,91.80
2023-02-02T07:23:55.802Z,91.74
2023-02-02T07:24:55.809Z,91.74
2023-02-02T07:25:55.783Z,91.53
2023-02-02T07:26:55.863Z,91.95
2023-02-02T07:27:55.783Z,92.26
2023-02-02T07:28:55.775Z,91.95
2023-02-02T07:29:55.799Z,91.70
2023-02-02T07:30:55.806Z,91.91
2023-02-02T07:31:55.777Z,91.49
2023-02-02T07:32:55.747Z,91.60
2023-02-02T07:33:55.710Z,91.08
2023-02-02T07:34:55.730Z,91.28
2023-02-02T07:35:55.711Z,91.18
2023-02-02T07:36:55.684Z,91.28
2023-02-02T07:37:55.683Z,90.93
2023-02-02T07:38:55.675Z,90.41
2023-02-02T07:39:55.660Z,90.04
2023-02-02T07:40:55.686Z,90.14
2023-02-02T07:41:55.649Z,90.35
2023-02-02T07:42:55.623Z,90.45
2023-02-02T07:43:55.619Z,90.72
2023-02-02T07:44:55.595Z,90.83
2023-02-02T07:45:55.599Z,90.93
2023-02-02T07:46:55.616Z,90.41
2023-02-02T07:47:55.580Z,90.62
2023-02-02T07:48:55.591Z,89.58
2023-02-02T07:49:55.549Z,89.89
2023-02-02T07:50:55.571Z,89.89
2023-02-02T07:51:55.561Z,89.79
2023-02-02T07:52:55.568Z,90.10
2023-02-02T07:53:55.540Z,89.62
2023-02-02T07:55:05.384Z,89.00
2023-02-02T07:55:57.630Z,89.15
2023-02-02T07:56:55.516Z,89.77
2023-02-02T07:57:55.622Z,89.87
2023-02-02T07:58:55.783Z,90.02
2023-02-02T07:59:55.452Z,90.12
2023-02-02T08:00:55.513Z,91.06
2023-02-02T08:01:55.488Z,90.44
2023-02-02T08:02:55.475Z,91.06
2023-02-02T08:03:55.445Z,91.16
2023-02-02T08:04:55.422Z,91.41
2023-02-02T08:05:55.393Z,91.52
2023-02-02T08:06:55.400Z,91.31
2023-02-02T08:07:55.378Z,91.72
2023-02-02T08:08:55.386Z,91.76
2023-02-02T08:09:55.361Z,91.76
2023-02-02T08:10:55.346Z,91.97
2023-02-02T08:11:55.358Z,91.97
2023-02-02T08:12:55.333Z,91.97
2023-02-02T08:13:55.351Z,92.07
2023-02-02T08:14:55.325Z,92.07
2023-02-02T08:15:55.378Z,92.38
2023-02-02T08:16:55.292Z,92.28
2023-02-02T08:17:55.279Z,92.49
2023-02-02T08:18:55.283Z,91.86
2023-02-02T08:19:55.294Z,91.55
2023-02-02T08:20:55.271Z,91.86
2023-02-02T08:21:55.248Z,91.66
2023-02-02T08:22:55.276Z,91.86
2023-02-02T08:23:55.268Z,91.97
2023-02-02T08:24:55.247Z,91.62
2023-02-02T08:25:55.223Z,91.35
2023-02-02T08:26:55.221Z,91.62
2023-02-02T08:27:55.188Z,91.93
2023-02-02T08:28:55.186Z,91.93
2023-02-02T08:29:55.170Z,91.78
2023-02-02T08:30:55.235Z,91.78
2023-02-02T08:31:55.236Z,91.89
2023-02-02T08:32:55.142Z,91.27
2023-02-02T08:33:55.135Z,91.72
2023-02-02T08:34:55.243Z,91.68
2023-02-02T08:35:55.136Z,91.27
2023-02-02T08:36:55.114Z,91.31
2023-02-02T08:37:55.131Z,92.14
2023-02-02T08:38:55.097Z,91.99
2023-02-02T08:39:55.111Z,91.83
2023-02-02T08:40:55.095Z,92.24
2023-02-02T08:41:55.069Z,91.97
2023-02-02T08:42:55.079Z,92.35
2023-02-02T08:43:55.041Z,92.28
2023-02-02T08:46:04.053Z,92.18
2023-02-02T08:46:13.025Z,92.14
2023-02-02T08:46:56.037Z,92.49
2023-02-02T08:48:09.513Z,92.66
2023-02-02T08:48:57.004Z,92.76
2023-02-02T08:49:55.006Z,92.76
2023-02-02T08:50:54.982Z,92.35
2023-02-02T08:51:55.930Z,92.14
2023-02-02T08:52:54.959Z,92.35
2023-02-02T08:53:54.963Z,92.18
2023-02-02T08:54:54.971Z,92.14
2023-02-02T08:55:54.923Z,92.03
2023-02-02T08:56:54.919Z,91.93
2023-02-02T08:57:54.917Z,92.35
2023-02-02T08:58:54.895Z,91.93
2023-02-02T08:59:54.894Z,92.10
2023-02-02T09:00:54.942Z,92.10
2023-02-02T09:01:54.958Z,91.99
2023-02-02T09:02:54.876Z,91.27
2023-02-02T09:03:54.845Z,91.47
2023-02-02T09:04:54.848Z,91.37
2023-02-02T09:05:54.855Z,90.70
2023-02-02T09:06:54.853Z,90.50
2023-02-02T09:07:54.810Z,89.67
2023-02-02T09:08:54.805Z,90.81
2023-02-02T09:09:54.812Z,90.29
2023-02-02T09:10:54.824Z,90.29
2023-02-02T09:11:54.770Z,90.39
2023-02-02T09:12:54.780Z,90.70
2023-02-02T09:13:54.772Z,89.98
2023-02-02T09:14:54.760Z,90.19
2023-02-02T09:15:54.728Z,90.08
2023-02-02T09:16:54.827Z,90.02
2023-02-02T09:17:54.756Z,89.98
2023-02-02T09:18:54.717Z,89.98
2023-02-02T09:19:54.688Z,90.29
2023-02-02T09:20:55.804Z,90.50
2023-02-02T09:21:54.677Z,90.75
2023-02-02T09:22:54.674Z,90.85
2023-02-02T09:23:54.710Z,90.79
2023-02-02T09:24:54.681Z,91.83
2023-02-02T09:25:54.643Z,91.68
2023-02-02T09:26:54.675Z,92.30
2023-02-02T09:27:54.629Z,92.20
2023-02-02T09:28:54.616Z,91.99
2023-02-02T09:29:54.623Z,91.89
2023-02-02T09:30:54.646Z,91.27
2023-02-02T09:31:54.589Z,91.47
2023-02-02T09:32:54.586Z,90.64
2023-02-02T09:33:54.561Z,90.85
2023-02-02T09:34:54.558Z,90.75
2023-02-02T09:35:54.542Z,90.85
2023-02-02T09:36:54.549Z,90.85
2023-02-02T09:37:54.520Z,90.44
2023-02-02T09:38:54.537Z,90.75
2023-02-02T09:39:54.505Z,90.75
2023-02-02T09:40:54.486Z,90.70
2023-02-02T09:41:54.484Z,90.95
2023-02-02T09:42:54.480Z,90.60
2023-02-02T09:43:54.486Z,91.02
2023-02-02T09:44:54.451Z,90.39
2023-02-02T09:45:54.479Z,90.50
2023-02-02T09:46:54.421Z,89.94
2023-02-02T09:47:54.431Z,89.42
2023-02-02T09:48:54.447Z,89.83
2023-02-02T09:49:54.399Z,89.42
2023-02-02T09:50:54.432Z,89.21
2023-02-02T09:51:54.398Z,88.39
2023-02-02T09:52:54.370Z,89.00
2023-02-02T09:53:55.834Z,88.76
2023-02-02T09:54:55.371Z,88.65
2023-02-02T09:55:54.355Z,88.24
2023-02-02T09:56:54.328Z,88.24
2023-02-02T09:57:54.324Z,88.45
2023-02-02T09:58:54.346Z,89.21
2023-02-02T09:59:54.300Z,89.11
2023-02-02T10:00:54.397Z,89.15
2023-02-02T10:01:54.314Z,89.67
2023-02-02T10:02:54.272Z,90.08
2023-02-02T10:03:54.290Z,90.95
2023-02-02T10:04:54.275Z,91.62
2023-02-02T10:05:54.261Z,92.03
2023-02-02T10:06:54.246Z,92.03
2023-02-02T10:07:54.266Z,92.35
2023-02-02T10:08:54.225Z,92.03
2023-02-02T10:09:54.236Z,92.03
2023-02-02T10:10:54.232Z,92.03
2023-02-02T10:11:54.183Z,92.38
2023-02-02T10:12:54.177Z,92.28
2023-02-02T10:13:54.179Z,92.28
2023-02-02T10:14:54.200Z,92.80
2023-02-02T10:15:54.195Z,92.80
2023-02-02T10:16:54.153Z,92.80
2023-02-02T10:17:54.132Z,92.59
2023-02-02T10:18:54.128Z,92.69
2023-02-02T10:19:54.115Z,92.28
2023-02-02T10:20:54.111Z,92.18
2023-02-02T10:21:54.158Z,92.18
2023-02-02T10:22:54.105Z,92.63
2023-02-02T10:23:54.197Z,92.74
2023-02-02T10:24:54.074Z,92.74
2023-02-02T10:25:54.058Z,92.94
2023-02-02T10:26:54.140Z,92.59
2023-02-02T10:27:54.028Z,92.43
2023-02-02T10:28:54.047Z,92.63
2023-02-02T10:29:55.013Z,92.74
2023-02-02T10:30:54.117Z,92.63
2023-02-02T10:31:54.156Z,92.94
2023-02-02T10:32:53.983Z,92.74
2023-02-02T10:33:53.993Z,92.69
2023-02-02T10:35:06.769Z,92.74
2023-02-02T10:35:55.955Z,92.63
2023-02-02T10:36:53.968Z,92.94
2023-02-02T10:37:54.056Z,92.94
2023-02-02T10:38:53.926Z,93.01
2023-02-02T10:39:53.990Z,92.94
2023-02-02T10:40:53.942Z,92.43
2023-02-02T10:41:53.894Z,92.32
2023-02-02T10:42:53.901Z,92.43
2023-02-02T10:43:54.008Z,92.53
2023-02-02T10:44:53.913Z,92.32
2023-02-02T10:45:53.986Z,92.63
2023-02-02T10:46:53.869Z,92.43
2023-02-02T10:47:53.840Z,92.32
2023-02-02T10:48:53.878Z,92.18
2023-02-02T10:49:56.175Z,92.43
2023-02-02T10:50:54.849Z,91.91
2023-02-02T10:51:53.838Z,91.70
2023-02-02T10:52:53.852Z,91.49
2023-02-02T10:53:53.816Z,91.45
2023-02-02T10:54:57.716Z,91.39
2023-02-02T10:55:54.762Z,91.60
2023-02-02T10:56:53.772Z,91.70
2023-02-02T10:57:53.799Z,92.01
2023-02-02T10:58:53.760Z,91.49
2023-02-02T10:59:53.746Z,91.35
2023-02-02T11:00:53.717Z,91.86
2023-02-02T11:01:53.802Z,91.39
2023-02-02T11:02:53.793Z,91.76
2023-02-02T11:03:53.697Z,91.97
2023-02-02T11:04:53.693Z,91.35
2023-02-02T11:05:53.683Z,91.60
2023-02-02T11:06:53.764Z,90.87
2023-02-02T11:07:54.724Z,91.45
2023-02-02T11:08:53.655Z,90.83
2023-02-02T11:09:53.643Z,90.83
2023-02-02T11:10:53.632Z,91.24
2023-02-02T11:11:53.635Z,91.03
2023-02-02T11:12:53.611Z,91.03
2023-02-02T11:13:53.610Z,91.14
2023-02-02T11:14:53.626Z,90.48
2023-02-02T11:15:53.624Z,90.89
2023-02-02T11:16:53.570Z,90.37
2023-02-02T11:17:53.551Z,90.69
2023-02-02T11:18:53.569Z,91.06
2023-02-02T11:19:53.555Z,90.64
2023-02-02T11:20:53.546Z,90.27
2023-02-02T11:21:53.552Z,90.06
2023-02-02T11:22:53.531Z,90.12
2023-02-02T11:23:53.511Z,90.75
2023-02-02T11:24:53.549Z,90.75
2023-02-02T11:25:53.528Z,89.56
2023-02-02T11:26:53.534Z,89.77
2023-02-02T11:27:53.468Z,89.61
2023-02-02T11:28:53.469Z,88.94
2023-02-02T11:29:53.455Z,88.84
2023-02-02T11:30:53.535Z,88.42
2023-02-02T11:31:53.494Z,88.63
2023-02-02T11:32:53.506Z,89.40
2023-02-02T11:33:53.398Z,89.15
2023-02-02T11:34:53.408Z,89.25
2023-02-02T11:35:53.593Z,89.04
2023-02-02T11:36:53.422Z,89.25
2023-02-02T11:37:53.377Z,89.56
2023-02-02T11:38:53.356Z,89.87
2023-02-02T11:39:53.997Z,89.36
2023-02-02T11:40:53.333Z,89.42
2023-02-02T11:41:53.384Z,88.79
2023-02-02T11:42:53.317Z,88.59
2023-02-02T11:43:53.378Z,88.84
2023-02-02T11:44:53.337Z,89.00
2023-02-02T11:45:53.275Z,89.46
2023-02-02T11:46:53.365Z,89.52
2023-02-02T11:47:53.311Z,89.21
2023-02-02T11:48:53.282Z,88.28
2023-02-02T11:49:53.246Z,88.53
2023-02-02T11:50:53.416Z,88.07
2023-02-02T11:51:53.240Z,88.42
2023-02-02T11:52:53.237Z,89.04
2023-02-02T11:53:53.303Z,88.73
2023-02-02T11:54:53.208Z,89.36
2023-02-02T11:55:53.239Z,90.12
2023-02-02T11:56:53.240Z,90.02
2023-02-02T11:57:53.175Z,90.23
2023-02-02T11:58:53.182Z,90.19
2023-02-02T11:59:53.247Z,90.12
2023-02-02T12:00:53.165Z,90.50
2023-02-02T12:01:53.140Z,90.44
2023-02-02T12:02:53.161Z,90.54
2023-02-02T12:03:53.196Z,90.75
2023-02-02T12:04:53.117Z,90.02
2023-02-02T12:05:53.238Z,91.16
2023-02-02T12:06:53.115Z,90.81
2023-02-02T12:07:53.080Z,90.77
2023-02-02T12:08:53.192Z,90.04
2023-02-02T12:09:53.057Z,90.35
2023-02-02T12:10:53.059Z,89.73
2023-02-02T12:11:53.137Z,90.08
2023-02-02T12:12:53.033Z,90.14
2023-02-02T12:13:53.030Z,90.00
2023-02-02T12:14:53.090Z,89.83
2023-02-02T12:15:53.058Z,89.62
2023-02-02T12:16:52.980Z,89.87
2023-02-02T12:17:53.113Z,90.50
2023-02-02T12:18:52.968Z,90.08
2023-02-02T12:19:52.969Z,91.12
2023-02-02T12:20:53.089Z,91.22
2023-02-02T12:21:52.942Z,91.22
2023-02-02T12:22:52.949Z,91.60
2023-02-02T12:23:53.085Z,91.74
2023-02-02T12:24:52.927Z,91.91
2023-02-02T12:25:52.898Z,91.28
2023-02-02T12:26:53.064Z,91.08
2023-02-02T12:27:52.907Z,91.39
2023-02-02T12:28:52.874Z,91.49
2023-02-02T12:29:53.024Z,90.87
2023-02-02T12:30:52.937Z,91.53
2023-02-02T12:31:52.872Z,90.66
2023-02-02T12:32:52.886Z,90.77
2023-02-02T12:33:52.852Z,90.66
2023-02-02T12:34:52.817Z,90.50
2023-02-02T12:35:52.895Z,90.91
2023-02-02T12:36:52.798Z,90.19
2023-02-02T12:37:52.906Z,90.04
2023-02-02T12:38:52.803Z,90.04
2023-02-02T12:39:52.776Z,90.14
2023-02-02T12:40:52.879Z,90.04
2023-02-02T12:41:52.745Z,90.04
2023-02-02T12:42:52.827Z,89.28
2023-02-02T12:43:52.930Z,88.76
2023-02-02T12:44:52.711Z,89.13
2023-02-02T12:45:52.762Z,89.65
2023-02-02T12:46:52.862Z,89.54
2023-02-02T12:47:52.714Z,89.13
2023-02-02T12:48:52.742Z,89.34
2023-02-02T12:49:52.689Z,88.46
2023-02-02T12:50:52.692Z,88.20
2023-02-02T12:51:52.639Z,88.30